sensor_id;sensor_type;location;lat;lon;timestamp;temperature;humidity
57108;DHT22;42987;52.916;6.542;2023-04-24T00:00:13;10.60;99.90
57108;DHT22;42987;52.916;6.542;2023-04-24T00:02:39;10.60;99.90
57108;DHT22;42987;52.916;6.542;2023-04-24T00:05:06;10.50;99.90
57108;DHT22;42987;52.916;6.542;2023-04-24T00:07:33;10.50;99.90
57108;DHT22;42987;52.916;6.542;2023-04-24T00:09:59;10.40;99.90
57108;DHT22;42987;52.916;6.542;2023-04-24T00:12:26;10.30;99.90
57108;DHT22;42987;52.916;6.542;2023-04-24T00:14:52;10.30;99.90
57108;DHT22;42987;52.916;6.542;2023-04-24T00:17:18;10.30;99.90
57108;DHT22;42987;52.916;6.542;2023-04-24T00:19:47;10.30;99.90
57108;DHT22;42987;52.916;6.542;2023-04-24T00:22:13;10.20;99.90
57108;DHT22;42987;52.916;6.542;2023-04-24T00:24:39;10.20;99.90
57108;DHT22;42987;52.916;6.542;2023-04-24T00:27:05;10.20;99.90
57108;DHT22;42987;52.916;6.542;2023-04-24T00:29:31;10.20;99.90
57108;DHT22;42987;52.916;6.542;2023-04-24T00:31:56;10.20;99.90
57108;DHT22;42987;52.916;6.542;2023-04-24T00:34:22;10.20;99.90
57108;DHT22;42987;52.916;6.542;2023-04-24T00:36:48;10.20;99.90
57108;DHT22;42987;52.916;6.542;2023-04-24T00:39:19;10.20;99.90
57108;DHT22;42987;52.916;6.542;2023-04-24T00:41:45;10.20;99.90
57108;DHT22;42987;52.916;6.542;2023-04-24T00:44:11;10.20;99.90
57108;DHT22;42987;52.916;6.542;2023-04-24T00:46:37;10.20;99.90
57108;DHT22;42987;52.916;6.542;2023-04-24T00:49:04;10.20;99.90
57108;DHT22;42987;52.916;6.542;2023-04-24T00:51:32;10.20;99.90
57108;DHT22;42987;52.916;6.542;2023-04-24T00:53:58;10.20;99.90
57108;DHT22;42987;52.916;6.542;2023-04-24T00:56:25;10.20;99.90
57108;DHT22;42987;52.916;6.542;2023-04-24T00:58:51;10.20;99.90
57108;DHT22;42987;52.916;6.542;2023-04-24T01:01:18;10.30;99.90
57108;DHT22;42987;52.916;6.542;2023-04-24T01:03:46;10.20;99.90
57108;DHT22;42987;52.916;6.542;2023-04-24T01:06:12;10.20;99.90
57108;DHT22;42987;52.916;6.542;2023-04-24T01:08:40;10.20;99.90
57108;DHT22;42987;52.916;6.542;2023-04-24T01:11:07;10.20;99.90
57108;DHT22;42987;52.916;6.542;2023-04-24T01:13:33;10.20;99.90
57108;DHT22;42987;52.916;6.542;2023-04-24T01:16:00;10.20;99.90
57108;DHT22;42987;52.916;6.542;2023-04-24T01:18:26;10.30;99.90
57108;DHT22;42987;52.916;6.542;2023-04-24T01:21:03;10.20;99.90
57108;DHT22;42987;52.916;6.542;2023-04-24T01:23:29;10.30;99.90
57108;DHT22;42987;52.916;6.542;2023-04-24T01:25:55;10.30;99.90
57108;DHT22;42987;52.916;6.542;2023-04-24T01:28:22;10.20;99.90
57108;DHT22;42987;52.916;6.542;2023-04-24T01:30:48;10.30;99.90
57108;DHT22;42987;52.916;6.542;2023-04-24T01:33:14;10.30;99.90
57108;DHT22;42987;52.916;6.542;2023-04-24T01:35:40;10.30;99.90
57108;DHT22;42987;52.916;6.542;2023-04-24T01:38:06;10.30;99.90
57108;DHT22;42987;52.916;6.542;2023-04-24T01:40:32;10.30;99.90
57108;DHT22;42987;52.916;6.542;2023-04-24T01:42:58;10.30;99.90
57108;DHT22;42987;52.916;6.542;2023-04-24T01:45:24;10.30;99.90
57108;DHT22;42987;52.916;6.542;2023-04-24T01:47:50;10.30;99.90
57108;DHT22;42987;52.916;6.542;2023-04-24T01:50:17;10.30;99.90
57108;DHT22;42987;52.916;6.542;2023-04-24T01:52:43;10.30;99.90
57108;DHT22;42987;52.916;6.542;2023-04-24T01:55:09;10.30;99.90
57108;DHT22;42987;52.916;6.542;2023-04-24T01:57:35;10.30;99.90
57108;DHT22;42987;52.916;6.542;2023-04-24T02:00:02;10.30;99.90
57108;DHT22;42987;52.916;6.542;2023-04-24T02:02:29;10.40;99.90
57108;DHT22;42987;52.916;6.542;2023-04-24T02:04:56;10.40;99.90
57108;DHT22;42987;52.916;6.542;2023-04-24T02:07:24;10.40;99.90
57108;DHT22;42987;52.916;6.542;2023-04-24T02:09:50;10.40;99.90
57108;DHT22;42987;52.916;6.542;2023-04-24T02:12:16;10.40;99.90
57108;DHT22;42987;52.916;6.542;2023-04-24T02:14:43;10.30;99.90
57108;DHT22;42987;52.916;6.542;2023-04-24T02:17:09;10.30;99.90
57108;DHT22;42987;52.916;6.542;2023-04-24T02:19:37;10.30;99.90
57108;DHT22;42987;52.916;6.542;2023-04-24T02:22:03;10.30;99.90
57108;DHT22;42987;52.916;6.542;2023-04-24T02:24:29;10.20;99.90
57108;DHT22;42987;52.916;6.542;2023-04-24T02:26:55;10.20;99.90
57108;DHT22;42987;52.916;6.542;2023-04-24T02:29:21;10.20;99.90
57108;DHT22;42987;52.916;6.542;2023-04-24T02:31:47;10.10;99.90
57108;DHT22;42987;52.916;6.542;2023-04-24T02:34:12;10.20;99.90
57108;DHT22;42987;52.916;6.542;2023-04-24T02:36:38;10.10;99.90
57108;DHT22;42987;52.916;6.542;2023-04-24T02:39:04;10.10;99.90
57108;DHT22;42987;52.916;6.542;2023-04-24T02:41:30;10.10;99.90
57108;DHT22;42987;52.916;6.542;2023-04-24T02:44:01;10.10;99.90
57108;DHT22;42987;52.916;6.542;2023-04-24T02:46:26;10.10;99.90
57108;DHT22;42987;52.916;6.542;2023-04-24T02:48:52;10.10;99.90
57108;DHT22;42987;52.916;6.542;2023-04-24T02:51:18;10.10;99.90
57108;DHT22;42987;52.916;6.542;2023-04-24T02:53:44;10.10;99.90
57108;DHT22;42987;52.916;6.542;2023-04-24T02:56:09;10.00;99.90
57108;DHT22;42987;52.916;6.542;2023-04-24T02:58:38;10.00;99.90
57108;DHT22;42987;52.916;6.542;2023-04-24T03:01:04;10.00;99.90
57108;DHT22;42987;52.916;6.542;2023-04-24T03:03:30;10.00;99.90
57108;DHT22;42987;52.916;6.542;2023-04-24T03:05:56;10.00;99.90
57108;DHT22;42987;52.916;6.542;2023-04-24T03:08:23;10.00;99.90
57108;DHT22;42987;52.916;6.542;2023-04-24T03:10:49;10.00;99.90
57108;DHT22;42987;52.916;6.542;2023-04-24T03:13:15;10.00;99.90
57108;DHT22;42987;52.916;6.542;2023-04-24T03:15:41;10.00;99.90
57108;DHT22;42987;52.916;6.542;2023-04-24T03:18:07;9.90;99.90
57108;DHT22;42987;52.916;6.542;2023-04-24T03:20:33;9.90;99.90
57108;DHT22;42987;52.916;6.542;2023-04-24T03:22:59;9.90;99.90
57108;DHT22;42987;52.916;6.542;2023-04-24T03:25:25;9.90;99.90
57108;DHT22;42987;52.916;6.542;2023-04-24T03:27:51;9.90;99.90
57108;DHT22;42987;52.916;6.542;2023-04-24T03:30:17;9.90;99.90
57108;DHT22;42987;52.916;6.542;2023-04-24T03:32:43;9.90;99.90
57108;DHT22;42987;52.916;6.542;2023-04-24T03:35:09;9.90;99.90
57108;DHT22;42987;52.916;6.542;2023-04-24T03:37:34;9.90;99.90
57108;DHT22;42987;52.916;6.542;2023-04-24T03:40:04;9.80;99.90
57108;DHT22;42987;52.916;6.542;2023-04-24T03:42:31;9.80;99.90
57108;DHT22;42987;52.916;6.542;2023-04-24T03:44:57;9.80;99.90
57108;DHT22;42987;52.916;6.542;2023-04-24T03:47:23;9.80;99.90
57108;DHT22;42987;52.916;6.542;2023-04-24T03:49:51;9.80;99.90
57108;DHT22;42987;52.916;6.542;2023-04-24T03:52:17;9.80;99.90
57108;DHT22;42987;52.916;6.542;2023-04-24T03:54:43;9.80;99.90
57108;DHT22;42987;52.916;6.542;2023-04-24T03:57:09;9.80;99.90
57108;DHT22;42987;52.916;6.542;2023-04-24T03:59:35;9.80;99.90
57108;DHT22;42987;52.916;6.542;2023-04-24T04:02:00;9.80;99.90
57108;DHT22;42987;52.916;6.542;2023-04-24T04:04:26;9.80;99.90
57108;DHT22;42987;52.916;6.542;2023-04-24T04:06:52;9.70;99.90
57108;DHT22;42987;52.916;6.542;2023-04-24T04:09:19;9.80;99.90
57108;DHT22;42987;52.916;6.542;2023-04-24T04:11:47;9.80;99.90
57108;DHT22;42987;52.916;6.542;2023-04-24T04:14:13;9.80;99.90
57108;DHT22;42987;52.916;6.542;2023-04-24T04:16:39;9.80;99.90
57108;DHT22;42987;52.916;6.542;2023-04-24T04:19:05;9.80;99.90
57108;DHT22;42987;52.916;6.542;2023-04-24T04:21:31;9.80;99.90
57108;DHT22;42987;52.916;6.542;2023-04-24T04:23:57;9.80;99.90
57108;DHT22;42987;52.916;6.542;2023-04-24T04:26:29;9.80;99.90
57108;DHT22;42987;52.916;6.542;2023-04-24T04:28:58;9.80;99.90
57108;DHT22;42987;52.916;6.542;2023-04-24T04:31:29;9.80;99.90
57108;DHT22;42987;52.916;6.542;2023-04-24T04:33:55;9.80;99.90
57108;DHT22;42987;52.916;6.542;2023-04-24T04:36:21;9.80;99.90
57108;DHT22;42987;52.916;6.542;2023-04-24T04:38:47;9.80;99.90
57108;DHT22;42987;52.916;6.542;2023-04-24T04:41:13;9.80;99.90
57108;DHT22;42987;52.916;6.542;2023-04-24T04:43:39;9.80;99.90
57108;DHT22;42987;52.916;6.542;2023-04-24T04:46:06;9.70;99.90
57108;DHT22;42987;52.916;6.542;2023-04-24T04:48:34;9.70;99.90
57108;DHT22;42987;52.916;6.542;2023-04-24T04:50:59;9.70;99.90
57108;DHT22;42987;52.916;6.542;2023-04-24T04:53:25;9.70;99.90
57108;DHT22;42987;52.916;6.542;2023-04-24T04:55:51;9.60;99.90
57108;DHT22;42987;52.916;6.542;2023-04-24T04:58:20;9.60;99.90
57108;DHT22;42987;52.916;6.542;2023-04-24T05:00:46;9.60;99.90
57108;DHT22;42987;52.916;6.542;2023-04-24T05:03:12;9.70;99.90
57108;DHT22;42987;52.916;6.542;2023-04-24T05:05:38;9.60;99.90
57108;DHT22;42987;52.916;6.542;2023-04-24T05:08:07;9.70;99.90
57108;DHT22;42987;52.916;6.542;2023-04-24T05:10:33;9.60;99.90
57108;DHT22;42987;52.916;6.542;2023-04-24T05:12:59;9.60;99.90
57108;DHT22;42987;52.916;6.542;2023-04-24T05:15:25;9.60;99.90
57108;DHT22;42987;52.916;6.542;2023-04-24T05:17:50;9.60;99.90
57108;DHT22;42987;52.916;6.542;2023-04-24T05:20:16;9.60;99.90
57108;DHT22;42987;52.916;6.542;2023-04-24T05:22:43;9.60;99.90
57108;DHT22;42987;52.916;6.542;2023-04-24T05:25:08;9.60;99.90
57108;DHT22;42987;52.916;6.542;2023-04-24T05:27:34;9.60;99.90
57108;DHT22;42987;52.916;6.542;2023-04-24T05:30:00;9.60;99.90
57108;DHT22;42987;52.916;6.542;2023-04-24T05:32:26;9.60;99.90
57108;DHT22;42987;52.916;6.542;2023-04-24T05:34:52;9.60;99.90
57108;DHT22;42987;52.916;6.542;2023-04-24T05:37:18;9.60;99.90
57108;DHT22;42987;52.916;6.542;2023-04-24T05:39:43;9.50;99.90
57108;DHT22;42987;52.916;6.542;2023-04-24T05:42:09;9.50;99.90
57108;DHT22;42987;52.916;6.542;2023-04-24T05:44:35;9.60;99.90
57108;DHT22;42987;52.916;6.542;2023-04-24T05:47:02;9.60;99.90
57108;DHT22;42987;52.916;6.542;2023-04-24T05:49:28;9.60;99.90
57108;DHT22;42987;52.916;6.542;2023-04-24T05:51:54;9.60;99.90
57108;DHT22;42987;52.916;6.542;2023-04-24T05:54:20;9.60;99.90
57108;DHT22;42987;52.916;6.542;2023-04-24T05:56:45;9.60;99.90
57108;DHT22;42987;52.916;6.542;2023-04-24T05:59:12;9.60;99.90
57108;DHT22;42987;52.916;6.542;2023-04-24T06:01:37;9.60;99.90
57108;DHT22;42987;52.916;6.542;2023-04-24T06:04:04;9.70;99.90
57108;DHT22;42987;52.916;6.542;2023-04-24T06:06:30;9.70;99.90
57108;DHT22;42987;52.916;6.542;2023-04-24T06:08:56;9.70;99.90
57108;DHT22;42987;52.916;6.542;2023-04-24T06:11:22;9.70;99.90
57108;DHT22;42987;52.916;6.542;2023-04-24T06:13:48;9.80;99.90
57108;DHT22;42987;52.916;6.542;2023-04-24T06:16:14;9.80;99.90
57108;DHT22;42987;52.916;6.542;2023-04-24T06:18:40;9.80;99.90
57108;DHT22;42987;52.916;6.542;2023-04-24T06:21:06;9.90;99.90
57108;DHT22;42987;52.916;6.542;2023-04-24T06:23:31;9.90;99.90
57108;DHT22;42987;52.916;6.542;2023-04-24T06:25:59;9.90;99.90
57108;DHT22;42987;52.916;6.542;2023-04-24T06:28:24;10.00;99.90
57108;DHT22;42987;52.916;6.542;2023-04-24T06:30:51;10.00;99.90
57108;DHT22;42987;52.916;6.542;2023-04-24T06:33:16;10.00;99.90
57108;DHT22;42987;52.916;6.542;2023-04-24T06:35:42;10.00;99.90
57108;DHT22;42987;52.916;6.542;2023-04-24T06:38:08;10.10;99.90
57108;DHT22;42987;52.916;6.542;2023-04-24T06:40:34;10.10;99.90
57108;DHT22;42987;52.916;6.542;2023-04-24T06:43:00;10.10;99.90
57108;DHT22;42987;52.916;6.542;2023-04-24T06:45:28;10.10;99.90
57108;DHT22;42987;52.916;6.542;2023-04-24T06:47:54;10.10;99.90
57108;DHT22;42987;52.916;6.542;2023-04-24T06:50:20;10.10;99.90
57108;DHT22;42987;52.916;6.542;2023-04-24T06:52:46;10.10;99.90
57108;DHT22;42987;52.916;6.542;2023-04-24T06:55:12;10.10;99.90
57108;DHT22;42987;52.916;6.542;2023-04-24T06:57:38;10.10;99.90
57108;DHT22;42987;52.916;6.542;2023-04-24T07:00:04;10.10;99.90
57108;DHT22;42987;52.916;6.542;2023-04-24T07:02:32;10.10;99.90
57108;DHT22;42987;52.916;6.542;2023-04-24T07:04:57;10.10;99.90
57108;DHT22;42987;52.916;6.542;2023-04-24T07:07:24;10.10;99.90
57108;DHT22;42987;52.916;6.542;2023-04-24T07:09:49;10.20;99.90
57108;DHT22;42987;52.916;6.542;2023-04-24T07:12:16;10.20;99.90
57108;DHT22;42987;52.916;6.542;2023-04-24T07:14:42;10.20;99.90
57108;DHT22;42987;52.916;6.542;2023-04-24T07:17:08;10.10;99.90
57108;DHT22;42987;52.916;6.542;2023-04-24T07:19:34;10.20;99.90
57108;DHT22;42987;52.916;6.542;2023-04-24T07:22:03;10.20;99.90
57108;DHT22;42987;52.916;6.542;2023-04-24T07:24:30;10.20;99.90
57108;DHT22;42987;52.916;6.542;2023-04-24T07:26:58;10.20;99.90
57108;DHT22;42987;52.916;6.542;2023-04-24T07:29:23;10.20;99.90
57108;DHT22;42987;52.916;6.542;2023-04-24T07:31:50;10.20;99.90
57108;DHT22;42987;52.916;6.542;2023-04-24T07:34:16;10.20;99.90
57108;DHT22;42987;52.916;6.542;2023-04-24T07:36:41;10.20;99.90
57108;DHT22;42987;52.916;6.542;2023-04-24T07:39:07;10.20;99.90
57108;DHT22;42987;52.916;6.542;2023-04-24T07:41:34;10.10;99.90
57108;DHT22;42987;52.916;6.542;2023-04-24T07:43:59;10.10;99.90
57108;DHT22;42987;52.916;6.542;2023-04-24T07:46:25;10.10;99.90
57108;DHT22;42987;52.916;6.542;2023-04-24T07:48:55;10.10;99.90
57108;DHT22;42987;52.916;6.542;2023-04-24T07:51:21;10.10;99.90
57108;DHT22;42987;52.916;6.542;2023-04-24T07:53:47;10.00;99.90
57108;DHT22;42987;52.916;6.542;2023-04-24T07:56:13;10.00;99.90
57108;DHT22;42987;52.916;6.542;2023-04-24T07:58:39;9.90;99.90
57108;DHT22;42987;52.916;6.542;2023-04-24T08:01:05;9.90;99.90
57108;DHT22;42987;52.916;6.542;2023-04-24T08:03:31;9.90;99.90
57108;DHT22;42987;52.916;6.542;2023-04-24T08:05:56;9.90;99.90
57108;DHT22;42987;52.916;6.542;2023-04-24T08:08:23;9.90;99.90
57108;DHT22;42987;52.916;6.542;2023-04-24T08:10:49;9.90;99.90
57108;DHT22;42987;52.916;6.542;2023-04-24T08:13:15;9.90;99.90
57108;DHT22;42987;52.916;6.542;2023-04-24T08:15:40;9.90;99.90
57108;DHT22;42987;52.916;6.542;2023-04-24T08:18:07;9.90;99.90
57108;DHT22;42987;52.916;6.542;2023-04-24T08:20:33;9.90;99.90
57108;DHT22;42987;52.916;6.542;2023-04-24T08:22:58;9.90;99.90
57108;DHT22;42987;52.916;6.542;2023-04-24T08:25:24;9.80;99.90
57108;DHT22;42987;52.916;6.542;2023-04-24T08:27:51;9.80;99.90
57108;DHT22;42987;52.916;6.542;2023-04-24T08:30:17;9.80;99.90
57108;DHT22;42987;52.916;6.542;2023-04-24T08:32:43;9.80;99.90
57108;DHT22;42987;52.916;6.542;2023-04-24T08:35:09;9.80;99.90
57108;DHT22;42987;52.916;6.542;2023-04-24T08:37:35;9.70;99.90
57108;DHT22;42987;52.916;6.542;2023-04-24T08:40:06;9.70;99.90
57108;DHT22;42987;52.916;6.542;2023-04-24T08:42:37;9.70;99.90
57108;DHT22;42987;52.916;6.542;2023-04-24T08:45:03;9.70;99.90
57108;DHT22;42987;52.916;6.542;2023-04-24T08:47:33;9.60;99.90
57108;DHT22;42987;52.916;6.542;2023-04-24T08:50:02;9.60;99.90
57108;DHT22;42987;52.916;6.542;2023-04-24T08:52:28;9.60;99.90
57108;DHT22;42987;52.916;6.542;2023-04-24T08:54:55;9.60;99.90
57108;DHT22;42987;52.916;6.542;2023-04-24T08:57:22;9.50;99.90
57108;DHT22;42987;52.916;6.542;2023-04-24T08:59:49;9.50;99.90
57108;DHT22;42987;52.916;6.542;2023-04-24T09:02:16;9.50;99.90
57108;DHT22;42987;52.916;6.542;2023-04-24T09:04:43;9.40;99.90
57108;DHT22;42987;52.916;6.542;2023-04-24T09:07:10;9.40;99.90
57108;DHT22;42987;52.916;6.542;2023-04-24T09:09:38;9.40;99.90
57108;DHT22;42987;52.916;6.542;2023-04-24T09:12:04;9.30;99.90
57108;DHT22;42987;52.916;6.542;2023-04-24T09:14:31;9.20;99.90
57108;DHT22;42987;52.916;6.542;2023-04-24T09:16:57;9.20;99.90
57108;DHT22;42987;52.916;6.542;2023-04-24T09:19:24;9.10;99.90
57108;DHT22;42987;52.916;6.542;2023-04-24T09:21:52;9.10;99.90
57108;DHT22;42987;52.916;6.542;2023-04-24T09:24:20;9.10;99.90
57108;DHT22;42987;52.916;6.542;2023-04-24T09:26:49;9.20;99.90
57108;DHT22;42987;52.916;6.542;2023-04-24T09:29:18;9.10;99.90
57108;DHT22;42987;52.916;6.542;2023-04-24T09:31:45;9.20;99.90
57108;DHT22;42987;52.916;6.542;2023-04-24T09:34:11;9.20;99.90
57108;DHT22;42987;52.916;6.542;2023-04-24T09:36:42;9.20;99.90
57108;DHT22;42987;52.916;6.542;2023-04-24T09:39:10;9.20;99.90
57108;DHT22;42987;52.916;6.542;2023-04-24T09:41:51;9.30;99.90
57108;DHT22;42987;52.916;6.542;2023-04-24T09:44:21;9.30;99.90
57108;DHT22;42987;52.916;6.542;2023-04-24T09:46:53;9.20;99.90
57108;DHT22;42987;52.916;6.542;2023-04-24T09:49:28;9.20;99.90
57108;DHT22;42987;52.916;6.542;2023-04-24T09:52:05;9.20;99.90
57108;DHT22;42987;52.916;6.542;2023-04-24T09:54:31;9.20;99.90
57108;DHT22;42987;52.916;6.542;2023-04-24T09:56:57;9.20;99.90
57108;DHT22;42987;52.916;6.542;2023-04-24T09:59:25;9.20;99.90
57108;DHT22;42987;52.916;6.542;2023-04-24T10:01:51;9.20;99.90
57108;DHT22;42987;52.916;6.542;2023-04-24T10:06:47;9.20;99.90
57108;DHT22;42987;52.916;6.542;2023-04-24T10:09:22;9.20;99.90
57108;DHT22;42987;52.916;6.542;2023-04-24T10:11:51;9.30;99.90
57108;DHT22;42987;52.916;6.542;2023-04-24T10:14:19;9.30;99.90
57108;DHT22;42987;52.916;6.542;2023-04-24T10:16:46;9.30;99.90
57108;DHT22;42987;52.916;6.542;2023-04-24T10:19:13;9.40;99.90
57108;DHT22;42987;52.916;6.542;2023-04-24T10:21:41;9.50;99.90
57108;DHT22;42987;52.916;6.542;2023-04-24T10:24:09;9.50;99.90
57108;DHT22;42987;52.916;6.542;2023-04-24T10:26:35;9.60;99.90
57108;DHT22;42987;52.916;6.542;2023-04-24T10:29:05;9.60;99.90
57108;DHT22;42987;52.916;6.542;2023-04-24T10:31:36;9.60;99.90
57108;DHT22;42987;52.916;6.542;2023-04-24T10:34:03;9.60;99.90
57108;DHT22;42987;52.916;6.542;2023-04-24T10:36:30;9.50;99.90
57108;DHT22;42987;52.916;6.542;2023-04-24T10:38:59;9.50;99.90
57108;DHT22;42987;52.916;6.542;2023-04-24T10:41:26;9.50;99.90
57108;DHT22;42987;52.916;6.542;2023-04-24T10:44:12;9.50;99.90
57108;DHT22;42987;52.916;6.542;2023-04-24T10:46:43;9.40;99.90
57108;DHT22;42987;52.916;6.542;2023-04-24T10:49:09;9.40;99.90
57108;DHT22;42987;52.916;6.542;2023-04-24T11:00:20;9.40;99.90
57108;DHT22;42987;52.916;6.542;2023-04-24T11:02:47;9.50;99.90
57108;DHT22;42987;52.916;6.542;2023-04-24T11:05:19;9.50;99.90
57108;DHT22;42987;52.916;6.542;2023-04-24T11:08:10;9.70;99.90
57108;DHT22;42987;52.916;6.542;2023-04-24T11:13:31;9.90;99.90
57108;DHT22;42987;52.916;6.542;2023-04-24T11:16:43;9.90;99.90
57108;DHT22;42987;52.916;6.542;2023-04-24T11:21:59;9.80;99.90
57108;DHT22;42987;52.916;6.542;2023-04-24T11:34:55;9.70;99.90
57108;DHT22;42987;52.916;6.542;2023-04-24T11:37:22;9.60;99.90
57108;DHT22;42987;52.916;6.542;2023-04-24T11:39:54;9.60;99.90
57108;DHT22;42987;52.916;6.542;2023-04-24T11:42:21;9.70;99.90
57108;DHT22;42987;52.916;6.542;2023-04-24T11:44:49;9.80;99.90
57108;DHT22;42987;52.916;6.542;2023-04-24T11:47:15;9.90;99.90
57108;DHT22;42987;52.916;6.542;2023-04-24T11:49:41;9.90;99.90
57108;DHT22;42987;52.916;6.542;2023-04-24T11:52:07;9.90;99.90
57108;DHT22;42987;52.916;6.542;2023-04-24T11:54:33;10.00;99.90
57108;DHT22;42987;52.916;6.542;2023-04-24T11:56:59;9.90;99.90
57108;DHT22;42987;52.916;6.542;2023-04-24T11:59:25;9.80;99.90
57108;DHT22;42987;52.916;6.542;2023-04-24T12:01:51;9.80;99.90
57108;DHT22;42987;52.916;6.542;2023-04-24T12:04:17;9.70;99.90
57108;DHT22;42987;52.916;6.542;2023-04-24T12:07:02;9.70;99.90
57108;DHT22;42987;52.916;6.542;2023-04-24T12:09:28;9.70;99.90
57108;DHT22;42987;52.916;6.542;2023-04-24T12:11:55;9.70;99.90
57108;DHT22;42987;52.916;6.542;2023-04-24T12:14:25;9.70;99.90
57108;DHT22;42987;52.916;6.542;2023-04-24T12:16:51;9.80;99.90
57108;DHT22;42987;52.916;6.542;2023-04-24T12:19:21;9.80;99.90
57108;DHT22;42987;52.916;6.542;2023-04-24T12:22:04;9.80;99.90
57108;DHT22;42987;52.916;6.542;2023-04-24T12:24:31;9.80;99.90
57108;DHT22;42987;52.916;6.542;2023-04-24T12:26:57;9.80;99.90
57108;DHT22;42987;52.916;6.542;2023-04-24T12:29:24;9.90;99.90
57108;DHT22;42987;52.916;6.542;2023-04-24T12:31:54;10.00;99.90
57108;DHT22;42987;52.916;6.542;2023-04-24T12:34:22;10.10;99.90
57108;DHT22;42987;52.916;6.542;2023-04-24T12:36:49;10.20;99.90
57108;DHT22;42987;52.916;6.542;2023-04-24T12:39:18;10.30;99.90
57108;DHT22;42987;52.916;6.542;2023-04-24T12:41:55;10.30;99.90
57108;DHT22;42987;52.916;6.542;2023-04-24T12:44:35;10.30;99.90
57108;DHT22;42987;52.916;6.542;2023-04-24T12:47:02;10.30;99.90
57108;DHT22;42987;52.916;6.542;2023-04-24T12:49:32;10.30;99.90
57108;DHT22;42987;52.916;6.542;2023-04-24T12:51:58;10.20;99.90
57108;DHT22;42987;52.916;6.542;2023-04-24T12:54:24;10.20;99.90
57108;DHT22;42987;52.916;6.542;2023-04-24T12:56:50;10.20;99.90
57108;DHT22;42987;52.916;6.542;2023-04-24T12:59:16;10.20;99.90
57108;DHT22;42987;52.916;6.542;2023-04-24T13:01:41;10.20;99.90
57108;DHT22;42987;52.916;6.542;2023-04-24T13:04:07;10.20;99.90
57108;DHT22;42987;52.916;6.542;2023-04-24T13:06:33;10.20;99.90
57108;DHT22;42987;52.916;6.542;2023-04-24T13:09:00;10.20;99.90
57108;DHT22;42987;52.916;6.542;2023-04-24T13:11:25;10.20;99.90
57108;DHT22;42987;52.916;6.542;2023-04-24T13:13:51;10.10;99.90
57108;DHT22;42987;52.916;6.542;2023-04-24T13:16:17;10.20;99.90
57108;DHT22;42987;52.916;6.542;2023-04-24T13:18:43;10.20;99.90
57108;DHT22;42987;52.916;6.542;2023-04-24T13:21:08;10.20;99.90
57108;DHT22;42987;52.916;6.542;2023-04-24T13:23:34;10.30;99.90
57108;DHT22;42987;52.916;6.542;2023-04-24T13:26:00;10.20;99.90
57108;DHT22;42987;52.916;6.542;2023-04-24T13:28:26;10.30;99.90
57108;DHT22;42987;52.916;6.542;2023-04-24T13:30:56;10.20;99.90
57108;DHT22;42987;52.916;6.542;2023-04-24T13:33:22;10.10;99.90
57108;DHT22;42987;52.916;6.542;2023-04-24T13:35:47;10.10;99.90
57108;DHT22;42987;52.916;6.542;2023-04-24T13:38:13;10.00;99.90
57108;DHT22;42987;52.916;6.542;2023-04-24T13:40:39;9.90;99.90
57108;DHT22;42987;52.916;6.542;2023-04-24T13:43:05;9.90;99.90
57108;DHT22;42987;52.916;6.542;2023-04-24T13:45:30;9.80;99.90
57108;DHT22;42987;52.916;6.542;2023-04-24T13:47:56;9.80;99.90
57108;DHT22;42987;52.916;6.542;2023-04-24T13:50:22;9.70;99.90
57108;DHT22;42987;52.916;6.542;2023-04-24T13:52:48;9.70;99.90
57108;DHT22;42987;52.916;6.542;2023-04-24T13:55:14;9.70;99.90
57108;DHT22;42987;52.916;6.542;2023-04-24T13:57:39;9.80;99.90
57108;DHT22;42987;52.916;6.542;2023-04-24T14:00:06;9.80;99.90
57108;DHT22;42987;52.916;6.542;2023-04-24T14:02:36;9.80;99.90
57108;DHT22;42987;52.916;6.542;2023-04-24T14:05:02;9.80;99.90
57108;DHT22;42987;52.916;6.542;2023-04-24T14:07:29;9.90;99.90
57108;DHT22;42987;52.916;6.542;2023-04-24T14:09:54;9.90;99.90
57108;DHT22;42987;52.916;6.542;2023-04-24T14:12:20;9.90;99.90
57108;DHT22;42987;52.916;6.542;2023-04-24T14:14:47;9.90;99.90
57108;DHT22;42987;52.916;6.542;2023-04-24T14:17:14;9.80;99.90
57108;DHT22;42987;52.916;6.542;2023-04-24T14:19:40;9.80;99.90
57108;DHT22;42987;52.916;6.542;2023-04-24T14:22:06;9.70;99.90
57108;DHT22;42987;52.916;6.542;2023-04-24T14:24:32;9.70;99.90
57108;DHT22;42987;52.916;6.542;2023-04-24T14:26:57;9.70;99.90
57108;DHT22;42987;52.916;6.542;2023-04-24T14:29:26;9.70;99.90
57108;DHT22;42987;52.916;6.542;2023-04-24T14:31:52;9.70;99.90
57108;DHT22;42987;52.916;6.542;2023-04-24T14:34:18;9.60;99.90
57108;DHT22;42987;52.916;6.542;2023-04-24T14:36:44;9.60;99.90
57108;DHT22;42987;52.916;6.542;2023-04-24T14:39:09;9.70;99.90
57108;DHT22;42987;52.916;6.542;2023-04-24T14:41:36;9.60;99.90
57108;DHT22;42987;52.916;6.542;2023-04-24T14:44:06;9.60;99.90
57108;DHT22;42987;52.916;6.542;2023-04-24T14:46:32;9.60;99.90
57108;DHT22;42987;52.916;6.542;2023-04-24T14:48:58;9.50;99.90
57108;DHT22;42987;52.916;6.542;2023-04-24T14:51:24;9.50;99.90
57108;DHT22;42987;52.916;6.542;2023-04-24T14:53:51;9.50;99.90
57108;DHT22;42987;52.916;6.542;2023-04-24T14:56:17;9.60;99.90
57108;DHT22;42987;52.916;6.542;2023-04-24T14:58:43;9.60;99.90
57108;DHT22;42987;52.916;6.542;2023-04-24T15:01:09;9.60;99.90
57108;DHT22;42987;52.916;6.542;2023-04-24T15:03:34;9.60;99.90
57108;DHT22;42987;52.916;6.542;2023-04-24T15:06:00;9.60;99.90
57108;DHT22;42987;52.916;6.542;2023-04-24T15:08:26;9.60;99.90
57108;DHT22;42987;52.916;6.542;2023-04-24T15:10:52;9.60;99.90
57108;DHT22;42987;52.916;6.542;2023-04-24T15:13:18;9.60;99.90
57108;DHT22;42987;52.916;6.542;2023-04-24T15:15:46;9.70;99.90
57108;DHT22;42987;52.916;6.542;2023-04-24T15:18:12;9.90;99.90
57108;DHT22;42987;52.916;6.542;2023-04-24T15:20:38;10.10;99.90
57108;DHT22;42987;52.916;6.542;2023-04-24T15:23:10;10.10;99.90
57108;DHT22;42987;52.916;6.542;2023-04-24T15:25:36;10.10;99.90
57108;DHT22;42987;52.916;6.542;2023-04-24T15:28:02;10.10;99.90
57108;DHT22;42987;52.916;6.542;2023-04-24T15:30:29;10.00;99.90
57108;DHT22;42987;52.916;6.542;2023-04-24T15:32:55;10.00;99.90
57108;DHT22;42987;52.916;6.542;2023-04-24T15:35:21;9.90;99.90
57108;DHT22;42987;52.916;6.542;2023-04-24T15:37:47;9.80;99.90
57108;DHT22;42987;52.916;6.542;2023-04-24T15:40:13;9.80;99.90
57108;DHT22;42987;52.916;6.542;2023-04-24T15:42:42;10.00;99.90
57108;DHT22;42987;52.916;6.542;2023-04-24T15:45:08;10.10;99.90
57108;DHT22;42987;52.916;6.542;2023-04-24T15:47:34;10.20;99.90
57108;DHT22;42987;52.916;6.542;2023-04-24T15:50:02;10.10;99.90
57108;DHT22;42987;52.916;6.542;2023-04-24T15:52:28;10.00;99.90
57108;DHT22;42987;52.916;6.542;2023-04-24T15:54:56;9.90;99.90
57108;DHT22;42987;52.916;6.542;2023-04-24T15:57:22;9.80;99.90
57108;DHT22;42987;52.916;6.542;2023-04-24T15:59:48;9.70;99.90
57108;DHT22;42987;52.916;6.542;2023-04-24T16:02:14;9.50;99.90
57108;DHT22;42987;52.916;6.542;2023-04-24T16:04:50;9.50;99.90